Time;durP1;ratioP1;P1;durP2;ratioP2;P2;SDS_P1;SDS_P2;PMS_P1;PMS_P2;Temp;Humidity;BMP_temperature;BMP_pressure;BME280_temperature;BME280_humidity;BME280_pressure;Samples;Min_cycle;Max_cycle;Signal;HPM_P1;HPM_P2
2023/03/05 00:01:56;;;;;;;11.50;2.75;;;;;;;4.51;100.00;102317.06;5205824;28;20025;-75
2023/03/05 00:04:26;;;;;;;9.45;3.40;;;;;;;4.55;100.00;102313.28;5214268;28;20017;-75
2023/03/05 00:06:57;;;;;;;9.65;3.13;;;;;;;4.53;100.00;102309.88;5205610;28;20025;-75
2023/03/05 00:09:27;;;;;;;13.05;3.17;;;;;;;4.47;100.00;102302.25;5223284;28;20017;-75
2023/03/05 00:11:58;;;;;;;7.68;2.85;;;;;;;4.49;100.00;102297.72;5223430;28;20074;-75
2023/03/05 00:14:28;;;;;;;7.72;3.35;;;;;;;4.40;100.00;102299.97;5223835;28;20114;-75
2023/03/05 00:16:59;;;;;;;8.70;3.63;;;;;;;4.40;100.00;102297.28;5222342;28;20453;-75
2023/03/05 00:19:29;;;;;;;11.05;3.17;;;;;;;4.36;100.00;102293.09;5205724;28;20111;-75
2023/03/05 00:22:00;;;;;;;8.43;3.30;;;;;;;4.37;100.00;102284.22;5205381;28;20025;-75
2023/03/05 00:24:30;;;;;;;10.10;3.35;;;;;;;4.35;100.00;102287.91;5223611;28;20024;-75
2023/03/05 00:27:00;;;;;;;8.70;3.10;;;;;;;4.31;100.00;102284.56;5222759;28;20109;-75
2023/03/05 00:29:31;;;;;;;15.25;3.40;;;;;;;4.31;100.00;102287.22;5223101;28;20133;-75
2023/03/05 00:32:02;;;;;;;7.95;2.85;;;;;;;4.31;100.00;102286.34;5223230;28;20021;-75
2023/03/05 00:34:32;;;;;;;15.55;4.55;;;;;;;4.27;100.00;102287.50;5223467;28;20025;-75
2023/03/05 00:37:03;;;;;;;8.73;3.30;;;;;;;4.23;100.00;102283.31;5222932;28;20497;-75
2023/03/05 00:39:33;;;;;;;10.95;3.60;;;;;;;4.15;100.00;102281.09;5223567;28;20111;-75
2023/03/05 00:42:04;;;;;;;15.98;3.50;;;;;;;4.07;100.00;102278.03;5206629;28;20020;-76
2023/03/05 00:44:35;;;;;;;11.20;4.32;;;;;;;4.00;100.00;102282.84;5213690;28;20037;-75
2023/03/05 00:47:05;;;;;;;8.63;3.55;;;;;;;3.97;100.00;102276.88;5226678;28;20017;-75
2023/03/05 00:49:36;;;;;;;10.10;3.53;;;;;;;3.94;100.00;102271.72;5209724;28;20119;-75
2023/03/05 00:52:06;;;;;;;10.07;3.40;;;;;;;3.91;100.00;102264.78;5209267;28;20031;-75
2023/03/05 00:54:37;;;;;;;10.23;4.22;;;;;;;3.89;100.00;102267.53;5208998;28;20039;-76
2023/03/05 00:57:07;;;;;;;13.32;3.63;;;;;;;3.88;100.00;102259.66;5226573;28;20021;-75
2023/03/05 00:59:38;;;;;;;12.25;3.63;;;;;;;3.86;100.00;102254.41;5226571;28;20044;-75
2023/03/05 01:02:08;;;;;;;10.52;4.10;;;;;;;3.87;100.00;102263.28;5227374;28;20013;-75
2023/03/05 01:04:39;;;;;;;10.10;4.30;;;;;;;3.86;100.00;102248.25;5218070;28;20162;-75
2023/03/05 01:07:09;;;;;;;15.40;3.42;;;;;;;3.84;100.00;102247.50;5225960;28;20029;-75
2023/03/05 01:09:40;;;;;;;16.63;5.30;;;;;;;3.82;100.00;102250.25;5208846;28;20021;-75
2023/03/05 01:12:10;;;;;;;14.90;4.28;;;;;;;3.80;100.00;102241.50;5226247;28;20021;-76
2023/03/05 01:14:41;;;;;;;15.10;5.45;;;;;;;3.77;100.00;102239.03;5226552;28;20117;-76
2023/03/05 01:17:11;;;;;;;14.07;4.63;;;;;;;3.73;100.00;102237.50;5226135;28;20021;-75
2023/03/05 01:19:42;;;;;;;12.95;4.63;;;;;;;3.70;100.00;102242.97;5226442;28;20029;-76
2023/03/05 01:22:12;;;;;;;19.92;6.38;;;;;;;3.68;100.00;102236.91;5226529;28;20028;-75
2023/03/05 01:24:43;;;;;;;11.18;4.03;;;;;;;3.63;100.00;102226.56;5226777;28;20112;-76
2023/03/05 01:27:13;;;;;;;13.80;4.93;;;;;;;3.58;100.00;102223.31;5225841;28;20021;-75
2023/03/05 01:29:44;;;;;;;13.45;5.25;;;;;;;3.54;100.00;102220.91;5226073;28;20032;-75
2023/03/05 01:32:14;;;;;;;10.43;4.32;;;;;;;3.50;100.00;102216.72;5226020;28;20021;-75
2023/03/05 01:34:45;;;;;;;11.93;4.80;;;;;;;3.51;100.00;102216.63;5225962;28;20017;-76
2023/03/05 01:37:16;;;;;;;12.15;4.57;;;;;;;3.58;100.00;102206.53;5225912;28;20041;-76
2023/03/05 01:39:46;;;;;;;9.90;4.53;;;;;;;3.56;100.00;102206.59;5208202;28;20021;-75
2023/03/05 01:42:18;;;;;;;14.90;4.60;;;;;;;3.57;100.00;102203.03;5226057;28;20071;-75
2023/03/05 01:45:06;;;;;;;13.27;4.85;;;;;;;3.57;100.00;102205.69;5226499;28;20016;-75
2023/03/05 01:47:37;;;;;;;11.63;4.68;;;;;;;3.59;100.00;102200.28;5207992;28;20032;-75
2023/03/05 01:50:12;;;;;;;15.80;4.65;;;;;;;3.58;100.00;102187.97;5212744;28;20017;-75
2023/03/05 01:52:48;;;;;;;14.32;5.43;;;;;;;3.58;100.00;102187.97;5225226;28;20033;-75
2023/03/05 01:55:22;;;;;;;17.08;5.05;;;;;;;3.61;100.00;102190.44;5225688;28;20659;-75
2023/03/05 01:58:00;;;;;;;16.85;5.32;;;;;;;3.62;100.00;102189.50;5207169;28;20598;-75
2023/03/05 02:00:36;;;;;;;17.48;5.90;;;;;;;3.61;100.00;102182.47;5226159;28;20029;-76
2023/03/05 02:03:09;;;;;;;16.08;5.53;;;;;;;3.60;100.00;102180.75;5192426;28;20029;-75
2023/03/05 02:05:43;;;;;;;17.63;5.65;;;;;;;3.61;100.00;102182.47;5220177;28;20021;-75
2023/03/05 02:08:17;;;;;;;11.27;4.57;;;;;;;3.63;100.00;102172.63;5218027;28;20041;-75
2023/03/05 02:11:06;;;;;;;17.05;5.32;;;;;;;3.78;100.00;102168.22;5218782;28;20029;-75
2023/03/05 02:13:39;;;;;;;10.47;4.83;;;;;;;3.87;100.00;102165.03;5216340;28;20194;-76
2023/03/05 02:16:10;;;;;;;9.43;4.45;;;;;;;3.89;100.00;102163.97;5207700;28;20114;-75
2023/03/05 02:18:40;;;;;;;8.55;4.13;;;;;;;3.95;100.00;102164.56;5205949;28;20568;-75
2023/03/05 02:21:11;;;;;;;12.55;4.00;;;;;;;3.94;100.00;102160.22;5225872;28;20029;-76
2023/03/05 02:23:41;;;;;;;11.68;4.20;;;;;;;3.92;100.00;102151.50;5207384;28;20504;-75
2023/03/05 02:26:12;;;;;;;12.65;4.25;;;;;;;3.89;100.00;102140.09;5217020;28;20021;-76
2023/03/05 02:28:48;;;;;;;14.85;4.75;;;;;;;3.85;100.00;102149.19;5221675;28;20028;-75
2023/03/05 02:31:21;;;;;;;11.73;4.57;;;;;;;3.83;100.00;102150.22;5207254;28;20516;-75
2023/03/05 02:33:54;;;;;;;23.70;6.72;;;;;;;3.83;100.00;102147.56;5225018;28;20028;-75
2023/03/05 02:36:25;;;;;;;14.15;4.00;;;;;;;3.79;100.00;102144.25;5224592;28;20501;-75
2023/03/05 02:38:56;;;;;;;17.58;5.10;;;;;;;3.86;100.00;102156.19;5224927;28;20063;-75
2023/03/05 02:41:26;;;;;;;11.23;4.82;;;;;;;3.84;100.00;102147.47;5206941;28;20024;-75
2023/03/05 02:43:57;;;;;;;13.95;3.92;;;;;;;3.82;100.00;102148.53;5221233;28;20082;-76
2023/03/05 02:46:28;;;;;;;15.25;3.90;;;;;;;3.78;100.00;102147.84;5224358;28;20025;-75
2023/03/05 02:48:59;;;;;;;13.88;4.50;;;;;;;3.76;100.00;102141.75;5224528;28;20520;-75
2023/03/05 02:51:29;;;;;;;16.08;4.85;;;;;;;3.76;100.00;102144.41;5206848;28;20025;-75
2023/03/05 02:54:00;;;;;;;11.45;4.88;;;;;;;3.74;100.00;102138.34;5224901;28;20028;-75
2023/03/05 02:56:38;;;;;;;14.68;4.53;;;;;;;3.70;100.00;102131.50;5224441;28;20029;-75
2023/03/05 02:59:08;;;;;;;13.13;4.47;;;;;;;3.68;100.00;102130.75;5206532;28;20108;-75
2023/03/05 03:01:39;;;;;;;14.07;4.70;;;;;;;3.65;100.00;102130.91;5206475;28;20020;-75
2023/03/05 03:04:10;;;;;;;16.15;4.80;;;;;;;3.62;100.00;102131.97;5223975;28;20071;-75
2023/03/05 03:06:40;;;;;;;19.83;5.40;;;;;;;3.61;100.00;102119.66;5206575;28;20182;-76
2023/03/05 03:09:11;;;;;;;17.50;5.10;;;;;;;3.61;100.00;102117.00;5223181;28;20470;-75
2023/03/05 03:11:41;;;;;;;18.75;6.53;;;;;;;3.60;100.00;102109.97;5210767;28;20393;-76
2023/03/05 03:14:12;;;;;;;23.80;6.57;;;;;;;3.61;100.00;102108.16;5223919;28;20033;-75
2023/03/05 03:16:57;;;;;;;18.80;6.65;;;;;;;3.61;100.00;102100.19;5228043;28;20021;-76
2023/03/05 03:19:28;;;;;;;16.42;7.00;;;;;;;3.61;100.00;102100.19;5225577;28;20037;-75
2023/03/05 03:22:07;;;;;;;18.08;7.82;;;;;;;3.61;100.00;102100.19;5224294;28;20385;-76
2023/03/05 03:24:42;;;;;;;19.45;7.38;;;;;;;3.61;100.00;102089.59;5206514;28;20033;-76
2023/03/05 03:27:13;;;;;;;27.48;8.48;;;;;;;3.60;100.00;102086.06;5223999;28;20025;-75
2023/03/05 03:29:43;;;;;;;24.45;8.18;;;;;;;3.60;100.00;102083.41;5224109;28;20393;-75
2023/03/05 03:32:17;;;;;;;17.80;8.63;;;;;;;3.60;100.00;102083.41;5224309;28;20492;-75
2023/03/05 03:34:47;;;;;;;26.52;10.52;;;;;;;3.60;100.00;102088.72;5223759;28;20443;-75
2023/03/05 03:37:18;;;;;;;26.77;8.40;;;;;;;3.61;100.00;102079.84;5223925;28;20028;-75
2023/03/05 03:39:48;;;;;;;20.63;9.43;;;;;;;3.61;100.00;102081.63;5224137;28;20108;-76
2023/03/05 03:42:20;;;;;;;21.02;8.73;;;;;;;3.59;100.00;102078.22;5224489;28;20028;-75
2023/03/05 03:44:54;;;;;;;24.33;9.23;;;;;;;3.58;100.00;102076.50;5224154;28;20078;-75
2023/03/05 03:47:24;;;;;;;28.27;9.88;;;;;;;3.57;100.00;102073.00;5223455;28;20106;-76
2023/03/05 03:49:55;;;;;;;20.35;9.27;;;;;;;3.54;100.00;102073.19;5224216;28;20032;-76
2023/03/05 03:52:29;;;;;;;25.83;8.27;;;;;;;3.54;100.00;102067.03;5224172;28;20094;-76
2023/03/05 03:55:00;;;;;;;28.17;9.23;;;;;;;3.52;100.00;102056.50;5223826;28;20021;-76
2023/03/05 03:57:32;;;;;;;17.02;8.07;;;;;;;3.49;100.00;102054.03;5206055;28;20112;-76
2023/03/05 04:00:05;;;;;;;25.55;8.85;;;;;;;3.46;100.00;102054.19;5223126;28;20041;-75
2023/03/05 04:02:36;;;;;;;24.27;9.20;;;;;;;3.46;100.00;102050.69;5223908;28;20028;-76
2023/03/05 04:05:07;;;;;;;19.48;8.65;;;;;;;3.45;100.00;102052.50;5205906;28;20025;-75
2023/03/05 04:07:38;;;;;;;23.65;8.93;;;;;;;3.47;100.00;102047.13;5223490;28;20024;-76
2023/03/05 04:10:09;;;;;;;22.55;9.80;;;;;;;3.50;100.00;102045.13;5223377;28;20405;-75
2023/03/05 04:12:42;;;;;;;24.08;8.73;;;;;;;3.50;100.00;102041.59;5223927;28;20082;-75
2023/03/05 04:15:12;;;;;;;23.77;8.82;;;;;;;3.50;100.00;102044.25;5205691;28;20029;-75
2023/03/05 04:17:43;;;;;;;18.80;7.90;;;;;;;3.50;100.00;102036.31;5226381;28;20029;-76
2023/03/05 04:20:14;;;;;;;19.80;8.35;;;;;;;3.49;100.00;102034.59;5209943;28;20027;-76
2023/03/05 04:22:44;;;;;;;21.83;8.13;;;;;;;3.47;100.00;102033.84;5227716;28;20039;-76
2023/03/05 04:25:15;;;;;;;19.70;8.57;;;;;;;3.46;100.00;102030.31;5227732;28;20108;-76
2023/03/05 04:27:46;;;;;;;22.77;8.18;;;;;;;3.44;100.00;102026.91;5209526;28;20473;-75
2023/03/05 04:30:17;;;;;;;20.40;8.02;;;;;;;3.43;100.00;102022.56;5228022;28;20033;-76
2023/03/05 04:32:47;;;;;;;21.27;8.40;;;;;;;3.43;100.00;102016.41;5227661;28;20028;-76
2023/03/05 04:35:18;;;;;;;20.42;8.95;;;;;;;3.41;100.00;102012.97;5209588;28;20536;-76
2023/03/05 04:37:48;;;;;;;19.58;8.32;;;;;;;3.39;100.00;102010.41;5227337;28;20163;-75
2023/03/05 04:40:19;;;;;;;20.05;8.60;;;;;;;3.38;100.00;102022.84;5209703;28;20082;-76
2023/03/05 04:42:50;;;;;;;20.05;7.80;;;;;;;3.37;100.00;102013.16;5227789;28;20025;-75
2023/03/05 04:45:21;;;;;;;21.45;9.02;;;;;;;3.37;100.00;102017.63;5209908;28;20070;-75
2023/03/05 04:47:51;;;;;;;24.52;8.05;;;;;;;3.39;100.00;102021.03;5226531;28;20040;-76
2023/03/05 04:50:22;;;;;;;17.05;8.38;;;;;;;3.36;100.00;102008.81;5227627;28;20045;-76
2023/03/05 04:52:53;;;;;;;17.58;8.23;;;;;;;3.35;100.00;102006.22;5227345;28;20094;-76
2023/03/05 04:55:24;;;;;;;24.02;8.32;;;;;;;3.32;100.00;102009.94;5227206;28;20021;-75
2023/03/05 04:57:54;;;;;;;28.00;9.18;;;;;;;3.34;100.00;102015.16;5227926;28;20075;-75
2023/03/05 05:00:25;;;;;;;22.15;8.93;;;;;;;3.34;100.00;102000.06;5226688;28;20078;-75
2023/03/05 05:02:55;;;;;;;18.63;8.48;;;;;;;3.33;100.00;102003.69;5227576;28;20045;-75
2023/03/05 05:05:28;;;;;;;24.98;9.55;;;;;;;3.31;100.00;102002.94;5226922;28;20025;-75
2023/03/05 05:07:58;;;;;;;24.27;9.32;;;;;;;3.31;100.00;101997.63;5226864;28;20032;-76
2023/03/05 05:10:30;;;;;;;25.70;8.70;;;;;;;3.31;100.00;101999.41;5221396;28;20056;-76
2023/03/05 05:13:00;;;;;;;27.73;9.05;;;;;;;3.32;100.00;102001.13;5219693;28;20025;-75
2023/03/05 05:15:31;;;;;;;25.48;9.68;;;;;;;3.32;100.00;101991.38;5226771;28;20500;-76
2023/03/05 05:18:02;;;;;;;25.17;8.75;;;;;;;3.34;100.00;101991.28;5208677;28;20110;-75
2023/03/05 05:20:32;;;;;;;25.10;9.27;;;;;;;3.33;100.00;101992.22;5226560;28;20112;-75
2023/03/05 05:23:06;;;;;;;25.70;9.70;;;;;;;3.33;100.00;101993.06;5208585;28;20028;-75
2023/03/05 05:25:36;;;;;;;22.58;8.60;;;;;;;3.34;100.00;101997.44;5226416;28;20483;-75
2023/03/05 05:28:07;;;;;;;21.90;9.07;;;;;;;3.33;100.00;101992.22;5226058;28;20025;-75
2023/03/05 05:30:38;;;;;;;22.33;8.43;;;;;;;3.35;100.00;101985.88;5208637;28;20477;-75
2023/03/05 05:33:08;;;;;;;31.63;8.95;;;;;;;3.35;100.00;101982.34;5226818;28;20029;-75
2023/03/05 05:35:39;;;;;;;20.73;8.63;;;;;;;3.33;100.00;101982.47;5226136;28;20032;-75
2023/03/05 05:38:12;;;;;;;30.77;9.60;;;;;;;3.36;100.00;101979.63;5226081;28;20029;-75
2023/03/05 05:40:42;;;;;;;21.35;8.13;;;;;;;3.34;100.00;101976.19;5226160;28;20021;-75
2023/03/05 05:43:13;;;;;;;21.58;7.95;;;;;;;3.34;100.00;101973.56;5226894;28;20111;-75
2023/03/05 05:45:44;;;;;;;19.48;8.68;;;;;;;3.34;100.00;101975.34;5208413;28;20017;-75
2023/03/05 05:48:14;;;;;;;30.38;9.38;;;;;;;3.35;100.00;101979.72;5225967;28;20031;-75
2023/03/05 05:50:44;;;;;;;21.58;8.85;;;;;;;3.33;100.00;101973.66;5225859;28;20474;-75
2023/03/05 05:53:18;;;;;;;24.17;10.25;;;;;;;3.33;100.00;101971.84;5226557;28;20104;-76
2023/03/05 05:55:49;;;;;;;19.13;8.23;;;;;;;3.32;100.00;101962.19;5225965;28;20395;-75
2023/03/05 05:58:19;;;;;;;27.70;9.30;;;;;;;3.32;100.00;101964.84;5225804;28;20063;-76
2023/03/05 06:00:50;;;;;;;22.02;7.97;;;;;;;3.30;100.00;101960.56;5225282;28;20029;-75
2023/03/05 06:03:20;;;;;;;20.50;8.10;;;;;;;3.32;100.00;101966.66;5226107;28;20028;-75
2023/03/05 06:05:51;;;;;;;25.48;8.57;;;;;;;3.33;100.00;101961.25;5225597;28;20025;-75
2023/03/05 06:08:21;;;;;;;22.05;8.27;;;;;;;3.31;100.00;101960.50;5207471;28;20035;-75
2023/03/05 06:10:53;;;;;;;90.18;39.50;;;;;;;3.32;100.00;101964.84;5208094;28;20024;-75
2023/03/05 06:13:24;;;;;;;55.45;26.15;;;;;;;3.33;100.00;101963.91;5225510;28;20040;-75
2023/03/05 06:15:56;;;;;;;44.80;20.80;;;;;;;3.34;100.00;101962.09;5225654;28;20029;-75
2023/03/05 06:18:27;;;;;;;132.38;52.65;;;;;;;3.36;100.00;101961.06;5225372;28;20051;-75
2023/03/05 06:21:01;;;;;;;25.80;10.07;;;;;;;3.40;100.00;101963.50;5225623;28;20060;-76
2023/03/05 06:23:32;;;;;;;21.95;8.10;;;;;;;3.43;100.00;101968.66;5225349;28;20489;-76
2023/03/05 06:26:04;;;;;;;26.05;9.35;;;;;;;3.48;100.00;101963.91;5225615;28;20032;-75
2023/03/05 06:28:35;;;;;;;24.65;9.05;;;;;;;3.45;100.00;101972.91;5225853;28;20477;-76
2023/03/05 06:31:10;;;;;;;109.72;42.17;;;;;;;3.40;100.00;101972.31;5207484;28;20031;-76
2023/03/05 06:33:41;;;;;;;33.58;12.38;;;;;;;3.40;100.00;101966.16;5225454;28;20078;-77
2023/03/05 06:36:15;;;;;;;46.22;15.88;;;;;;;3.38;100.00;101969.78;5224809;28;20441;-76
2023/03/05 06:38:46;;;;;;;84.18;34.35;;;;;;;3.35;100.00;101963.78;5206692;28;20070;-77
2023/03/05 06:41:20;;;;;;;45.63;20.73;;;;;;;3.31;100.00;101960.50;5224704;28;20017;-77
2023/03/05 06:43:52;;;;;;;25.77;11.30;;;;;;;3.31;100.00;101955.19;5225311;28;20393;-77
2023/03/05 06:46:25;;;;;;;33.45;10.48;;;;;;;3.29;100.00;101957.06;5206658;28;20528;-77
2023/03/05 06:48:58;;;;;;;29.40;11.85;;;;;;;3.30;100.00;101963.22;5204831;28;20021;-77
2023/03/05 06:51:33;;;;;;;26.25;11.82;;;;;;;3.30;100.00;101950.81;5198652;28;20488;-77
2023/03/05 06:54:06;;;;;;;37.00;9.95;;;;;;;3.30;100.00;101949.94;5213421;28;20052;-77
2023/03/05 06:56:39;;;;;;;29.48;11.60;;;;;;;3.26;100.00;101949.31;5195499;28;20094;-76
2023/03/05 06:59:11;;;;;;;28.33;12.48;;;;;;;3.22;100.00;101944.28;5193685;28;20104;-76
2023/03/05 07:01:42;;;;;;;28.23;11.90;;;;;;;3.23;100.00;101945.97;5215143;28;20021;-76
2023/03/05 07:04:13;;;;;;;31.58;13.60;;;;;;;3.26;100.00;101949.31;5210097;28;20032;-76
2023/03/05 07:06:44;;;;;;;32.10;14.32;;;;;;;3.29;100.00;101949.09;5215595;28;20021;-76
2023/03/05 07:09:15;;;;;;;33.55;14.18;;;;;;;3.38;100.00;101945.91;5210694;28;20049;-76
2023/03/05 07:11:46;;;;;;;36.40;15.82;;;;;;;3.42;100.00;101945.72;5219974;28;20476;-76
2023/03/05 07:14:17;;;;;;;39.75;16.40;;;;;;;3.46;100.00;101941.91;5211382;28;20045;-76
2023/03/05 07:16:50;;;;;;;30.98;14.07;;;;;;;3.53;100.00;101943.25;5214572;28;20393;-76
2023/03/05 07:19:21;;;;;;;31.65;15.98;;;;;;;3.59;100.00;101941.06;5223359;28;20120;-76
2023/03/05 07:21:51;;;;;;;28.88;15.30;;;;;;;3.70;100.00;101939.56;5209742;28;20471;-76
2023/03/05 07:24:26;;;;;;;40.33;17.02;;;;;;;3.88;100.00;101938.41;5214193;28;20094;-76
2023/03/05 07:26:56;;;;;;;25.90;12.93;;;;;;;3.95;100.00;101938.88;5208554;28;20025;-76
2023/03/05 07:29:27;;;;;;;32.92;15.27;;;;;;;4.04;100.00;101941.81;5214371;28;20115;-76
2023/03/05 07:31:58;;;;;;;29.23;14.88;;;;;;;4.09;100.00;101930.91;5211568;28;20032;-76
2023/03/05 07:34:31;;;;;;;22.40;12.05;;;;;;;4.15;100.00;101931.34;5212304;28;20025;-76
2023/03/05 07:37:02;;;;;;;24.73;12.88;;;;;;;4.24;100.00;101931.72;5210862;28;20505;-77
2023/03/05 07:39:32;;;;;;;28.00;14.07;;;;;;;4.28;100.00;101926.13;5193150;28;20068;-76
2023/03/05 07:42:03;;;;;;;29.83;12.05;;;;;;;4.31;100.00;101936.50;5166054;28;20493;-76
2023/03/05 07:44:33;;;;;;;22.98;12.60;;;;;;;4.32;100.00;101930.28;5197830;28;20020;-76
2023/03/05 07:47:04;;;;;;;25.92;12.73;;;;;;;4.32;100.00;101924.13;5213260;28;20543;-76
2023/03/05 07:49:35;;;;;;;23.70;11.85;;;;;;;4.35;100.00;101927.41;5211214;28;20028;-76
2023/03/05 07:52:06;;;;;;;19.35;10.93;;;;;;;4.43;100.00;101926.91;5188805;28;20097;-76
2023/03/05 07:54:38;;;;;;;25.25;10.98;;;;;;;4.52;100.00;101917.47;5223257;28;20051;-77
2023/03/05 07:57:12;;;;;;;25.65;10.15;;;;;;;4.55;100.00;101923.44;5222382;28;20021;-76
2023/03/05 07:59:42;;;;;;;22.02;11.88;;;;;;;4.58;100.00;101928.56;5222679;28;20056;-77
2023/03/05 08:02:13;;;;;;;27.60;12.15;;;;;;;4.67;100.00;101921.81;5205211;28;20017;-76
2023/03/05 08:04:44;;;;;;;19.02;9.15;;;;;;;4.70;100.00;101921.56;5223340;28;20056;-76
2023/03/05 08:07:15;;;;;;;15.77;8.85;;;;;;;4.75;100.00;101924.78;5222601;28;20386;-76
2023/03/05 08:09:45;;;;;;;19.52;9.50;;;;;;;4.71;100.00;101923.28;5204765;28;20024;-76
2023/03/05 08:12:16;;;;;;;22.27;10.48;;;;;;;4.71;100.00;101922.44;5218800;28;20496;-76
2023/03/05 08:14:46;;;;;;;15.27;8.00;;;;;;;4.77;100.00;101928.22;5223538;28;20029;-76
2023/03/05 08:17:17;;;;;;;15.48;7.50;;;;;;;4.75;100.00;101916.81;5222159;28;20028;-76
2023/03/05 08:19:48;;;;;;;15.68;7.95;;;;;;;4.80;100.00;101905.88;5205192;28;20035;-76
2023/03/05 08:22:19;;;;;;;19.45;9.00;;;;;;;4.87;100.00;101916.00;5204886;28;20462;-76
2023/03/05 08:24:50;;;;;;;17.05;8.43;;;;;;;4.85;100.00;101917.03;5211413;28;20485;-76
2023/03/05 08:27:21;;;;;;;15.50;7.18;;;;;;;4.92;100.00;101916.53;5213057;28;20028;-76
2023/03/05 08:29:51;;;;;;;22.98;10.32;;;;;;;4.89;100.00;101913.22;5222514;28;20624;-76
2023/03/05 08:32:22;;;;;;;17.38;8.43;;;;;;;4.93;100.00;101920.06;5222694;28;20056;-76
2023/03/05 08:34:57;;;;;;;32.78;13.30;;;;;;;4.89;100.00;101913.22;5204555;28;20169;-76
2023/03/05 08:37:27;;;;;;;17.23;8.18;;;;;;;4.83;100.00;101921.63;5204399;28;20033;-75
2023/03/05 08:40:01;;;;;;;19.17;9.13;;;;;;;4.72;100.00;101910.84;5222251;28;20472;-76
2023/03/05 08:42:32;;;;;;;46.47;16.42;;;;;;;4.64;100.00;101909.56;5222576;28;20029;-76
2023/03/05 08:45:02;;;;;;;21.85;10.63;;;;;;;4.49;100.00;101907.91;5188034;28;20112;-76
2023/03/05 08:47:33;;;;;;;24.15;11.93;;;;;;;4.36;100.00;101897.22;5221414;28;20120;-76
2023/03/05 08:50:07;;;;;;;19.80;9.80;;;;;;;4.24;100.00;101898.03;5214498;28;20504;-76
2023/03/05 08:52:38;;;;;;;18.30;9.88;;;;;;;4.15;100.00;101898.63;5216577;28;20068;-77
2023/03/05 08:55:10;;;;;;;12.77;6.85;;;;;;;4.10;100.00;101893.59;5222786;28;20492;-76
2023/03/05 08:57:41;;;;;;;12.30;7.05;;;;;;;4.07;100.00;101891.16;5221476;28;20036;-76
2023/03/05 09:00:12;;;;;;;13.85;8.32;;;;;;;4.06;100.00;101892.09;5204923;28;20053;-76
2023/03/05 09:02:43;;;;;;;20.23;11.88;;;;;;;4.06;100.00;101888.59;5189067;28;20158;-76
2023/03/05 09:05:13;;;;;;;20.48;12.05;;;;;;;4.02;100.00;101889.75;5226068;28;20051;-76
2023/03/05 09:07:44;;;;;;;29.92;14.70;;;;;;;4.07;100.00;101887.66;5225179;28;20021;-76
2023/03/05 09:10:17;;;;;;;27.20;12.45;;;;;;;4.26;100.00;101876.66;5221623;28;20026;-76
2023/03/05 09:12:48;;;;;;;23.02;11.95;;;;;;;4.26;100.00;101885.50;5225438;28;20071;-76
2023/03/05 09:15:18;;;;;;;22.38;12.35;;;;;;;4.33;100.00;101881.50;5208287;28;20028;-76
2023/03/05 09:17:49;;;;;;;27.95;13.23;;;;;;;4.39;100.00;101874.94;5225086;28;20414;-76
2023/03/05 09:20:19;;;;;;;27.65;14.48;;;;;;;4.38;100.00;101868.75;5225402;28;20028;-76
2023/03/05 09:22:50;;;;;;;29.92;13.35;;;;;;;4.52;100.00;101869.63;5225579;28;20033;-76
2023/03/05 09:25:21;;;;;;;27.92;13.25;;;;;;;4.61;100.00;101869.88;5225484;28;20493;-76
2023/03/05 09:27:52;;;;;;;27.25;12.73;;;;;;;4.73;100.00;101862.91;5207213;28;20465;-76
2023/03/05 09:30:23;;;;;;;22.35;11.77;;;;;;;4.83;100.00;101858.66;5207436;28;20060;-76
2023/03/05 09:32:53;;;;;;;63.28;31.55;;;;;;;4.99;100.00;101857.63;5225642;28;20025;-76
2023/03/05 09:35:24;;;;;;;25.77;11.38;;;;;;;5.00;100.00;101849.53;5224908;28;20021;-76
2023/03/05 09:37:54;;;;;;;16.48;10.65;;;;;;;5.08;100.00;101854.31;5224801;28;20082;-76
2023/03/05 09:40:29;;;;;;;19.58;9.85;;;;;;;5.17;100.00;101848.34;5224986;28;20040;-76
2023/03/05 09:43:35;;;;;;;14.30;8.13;;;;;;;5.23;100.00;101849.75;5224998;28;20631;-76
2023/03/05 09:46:27;;;;;;;16.07;8.60;;;;;;;5.24;100.00;101849.63;5206698;28;20098;-76
2023/03/05 09:49:29;;;;;;;22.80;10.57;;;;;;;5.35;100.00;101843.56;5224821;28;20286;-76
2023/03/05 09:52:18;;;;;;;11.18;6.93;;;;;;;5.41;100.00;101843.97;5213518;28;20025;-75
2023/03/05 09:54:55;;;;;;;12.88;6.55;;;;;;;5.61;100.00;101841.69;5207664;28;20083;-75
2023/03/05 09:57:48;;;;;;;13.05;6.70;;;;;;;5.77;100.00;101841.44;5224202;28;20047;-75
2023/03/05 10:00:24;;;;;;;12.35;5.57;;;;;;;5.95;100.00;101835.66;5224347;28;20024;-75
2023/03/05 10:02:59;;;;;;;8.65;4.65;;;;;;;6.13;100.00;101835.28;5225427;28;20108;-75
2023/03/05 10:05:45;;;;;;;7.95;4.18;;;;;;;6.37;100.00;101830.78;5224805;28;20040;-75
2023/03/05 10:08:21;;;;;;;5.97;3.10;;;;;;;6.65;100.00;101834.03;5224029;28;20491;-75
2023/03/05 10:10:53;;;;;;;6.60;3.33;;;;;;;6.57;100.00;101833.75;5219633;28;20043;-75
2023/03/05 10:13:29;;;;;;;6.50;3.45;;;;;;;6.57;100.00;101836.41;5206787;28;20025;-75
2023/03/05 10:16:37;;;;;;;5.03;2.92;;;;;;;6.97;100.00;101823.56;5224135;28;20403;-75
2023/03/05 10:19:29;;;;;;;8.85;2.88;;;;;;;6.81;100.00;101823.88;5223727;28;20029;-75
2023/03/05 10:22:13;;;;;;;7.68;2.75;;;;;;;6.84;100.00;101826.34;5224342;28;20025;-75
2023/03/05 10:25:17;;;;;;;7.95;3.60;;;;;;;6.79;100.00;101827.66;5207093;28;20436;-75
2023/03/05 10:27:53;;;;;;;25.30;12.70;;;;;;;6.78;100.00;101821.47;5213903;28;20024;-74
2023/03/05 10:31:00;;;;;;;14.25;7.68;;;;;;;6.65;100.00;101821.56;5206601;28;20036;-75
2023/03/05 10:34:08;;;;;;;10.40;5.82;;;;;;;6.49;100.00;101819.22;5224122;28;20096;-75
2023/03/05 10:37:03;;;;;;;53.72;28.30;;;;;;;6.65;100.00;101813.56;5223708;28;20025;-74
2023/03/05 10:39:53;;;;;;;29.70;15.50;;;;;;;6.83;100.00;101807.75;5223993;28;20565;-75
2023/03/05 10:43:00;;;;;;;15.82;8.93;;;;;;;6.96;100.00;101801.34;5206292;28;20033;-75
2023/03/05 10:45:51;;;;;;;9.90;3.28;;;;;;;7.05;100.00;101806.97;5212668;28;20021;-74
2023/03/05 10:48:43;;;;;;;8.73;2.45;;;;;;;6.96;100.00;101808.50;5222569;28;20529;-75
2023/03/05 10:51:19;;;;;;;3.80;2.40;;;;;;;6.90;100.00;101804.50;5210012;28;20342;-74
2023/03/05 10:53:55;;;;;;;21.70;9.57;;;;;;;6.89;100.00;101802.81;5223871;28;20047;-75
2023/03/05 10:56:27;;;;;;;5.40;2.97;;;;;;;6.91;100.00;101806.22;5223506;28;20639;-74
2023/03/05 10:58:58;;;;;;;4.82;2.60;;;;;;;6.96;100.00;101797.84;5223107;28;20029;-74
2023/03/05 11:01:30;;;;;;;8.30;4.78;;;;;;;6.83;100.00;101789.97;5193069;28;20070;-74
2023/03/05 11:04:05;;;;;;;5.93;2.63;;;;;;;6.95;100.00;101786.31;5205544;28;20051;-75
2023/03/05 11:06:37;;;;;;;;;;;;;;;7.15;100.00;101784.75;5205911;28;20032;-75
2023/03/05 11:09:28;;;;;;;6.95;4.47;;;;;;;7.38;100.00;101784.75;5222553;28;19915;-75
2023/03/05 11:12:17;;;;;;;3.92;2.95;;;;;;;7.70;100.00;101776.81;5219151;28;20104;-74
2023/03/05 11:15:25;;;;;;;5.20;3.42;;;;;;;7.92;100.00;101781.25;5223440;28;20025;-75
2023/03/05 11:18:16;;;;;;;14.98;7.22;;;;;;;7.78;100.00;101777.03;5213916;28;20017;-74
2023/03/05 11:20:47;;;;;;;6.00;3.22;;;;;;;7.60;100.00;101766.03;5223233;28;20086;-75
2023/03/05 11:23:22;;;;;;;6.15;3.00;;;;;;;7.40;100.00;101762.31;5223223;28;20028;-74
2023/03/05 11:26:11;;;;;;;8.23;3.22;;;;;;;7.25;100.00;101752.84;5209627;28;20696;-75
2023/03/05 11:28:51;;;;;;;6.97;3.63;;;;;;;6.98;100.00;101756.75;5222486;28;20070;-74
2023/03/05 11:31:25;;;;;;;9.40;3.60;;;;;;;6.82;100.00;101748.22;5222987;28;20028;-75
2023/03/05 11:34:22;;;;;;;11.43;4.85;;;;;;;6.77;100.00;101750.41;5192224;28;20031;-74
2023/03/05 11:37:02;;;;;;;9.38;4.32;;;;;;;6.87;100.00;101742.53;5204913;28;20098;-74
2023/03/05 11:39:37;;;;;;;42.55;13.43;;;;;;;7.03;100.00;101736.84;5222577;28;20048;-75
2023/03/05 11:42:27;;;;;;;10.20;3.57;;;;;;;7.19;100.00;101730.19;5223270;28;20093;-75
2023/03/05 11:44:58;;;;;;;16.42;7.57;;;;;;;7.39;100.00;101725.06;5222499;28;20123;-74
2023/03/05 11:47:38;;;;;;;27.50;9.75;;;;;;;7.45;100.00;101717.41;5222461;28;20032;-75